Time;durP1;ratioP1;P1;durP2;ratioP2;P2;SDS_P1;SDS_P2;PMS_P1;PMS_P2;Temp;Humidity;BMP_temperature;BMP_pressure;BME280_temperature;BME280_humidity;BME280_pressure;Samples;Min_cycle;Max_cycle;Signal;HPM_P1;HPM_P2
2022/09/23 00:00:39;;;;;;;13.07;6.57;;;16.60;75.80;;;;;;5052217;28;20033;-79
2022/09/23 00:03:05;;;;;;;17.88;7.05;;;16.60;75.80;;;;;;5052903;28;20040;-78
2022/09/23 00:05:32;;;;;;;10.75;6.93;;;16.50;75.80;;;;;;5052980;28;20033;-79
2022/09/23 00:07:58;;;;;;;15.50;7.40;;;16.50;75.90;;;;;;5052018;28;20033;-78
2022/09/23 00:10:25;;;;;;;13.80;7.40;;;16.50;75.90;;;;;;5052552;28;20040;-78
2022/09/23 00:12:53;;;;;;;15.80;7.22;;;16.50;76.00;;;;;;5051907;28;20040;-78
2022/09/23 00:15:18;;;;;;;16.90;7.10;;;16.50;76.00;;;;;;5052649;28;20052;-80
2022/09/23 00:17:44;;;;;;;13.98;7.60;;;16.50;76.00;;;;;;5052883;28;20482;-80
2022/09/23 00:20:10;;;;;;;10.95;7.03;;;16.40;76.00;;;;;;5052184;28;20755;-80
2022/09/23 00:22:36;;;;;;;16.38;7.55;;;16.40;76.20;;;;;;5053263;28;20041;-80
2022/09/23 00:25:06;;;;;;;13.75;7.50;;;16.40;76.20;;;;;;5056260;28;20162;-80
2022/09/23 00:27:32;;;;;;;11.85;7.22;;;16.40;76.30;;;;;;5055616;28;20037;-80
2022/09/23 00:29:59;;;;;;;14.38;7.35;;;16.30;76.30;;;;;;5056399;28;20029;-79
2022/09/23 00:32:25;;;;;;;16.15;7.93;;;16.30;76.30;;;;;;5058078;28;20025;-79
2022/09/23 00:34:51;;;;;;;15.52;7.55;;;16.30;76.40;;;;;;5058228;28;20048;-79
2022/09/23 00:37:20;;;;;;;12.60;7.57;;;16.30;76.50;;;;;;5090219;28;20075;-80
2022/09/23 00:39:46;;;;;;;10.40;6.95;;;16.30;76.50;;;;;;5091425;28;20033;-79
2022/09/23 00:42:15;;;;;;;13.38;8.00;;;16.30;76.60;;;;;;5084287;28;20032;-80
2022/09/23 00:44:51;;;;;;;16.30;7.68;;;16.30;76.70;;;;;;5076485;28;20062;-80
2022/09/23 00:47:33;;;;;;;12.45;7.60;;;16.20;76.60;;;;;;5076464;28;20112;-80
2022/09/23 00:50:21;;;;;;;18.90;8.00;;;16.20;76.70;;;;;;5075295;28;20395;-79
2022/09/23 00:52:49;;;;;;;20.23;8.23;;;16.10;76.60;;;;;;5075328;28;20040;-79
2022/09/23 00:55:19;;;;;;;13.13;8.05;;;16.20;76.70;;;;;;5075805;28;20040;-78
2022/09/23 00:57:46;;;;;;;12.77;7.78;;;16.10;76.80;;;;;;5066073;28;20079;-79
2022/09/23 01:00:12;;;;;;;14.65;7.50;;;16.10;76.80;;;;;;5054081;28;20064;-78
2022/09/23 01:02:38;;;;;;;14.60;7.95;;;16.10;76.90;;;;;;5054795;28;20033;-79
2022/09/23 01:05:06;;;;;;;17.67;8.40;;;16.10;77.00;;;;;;5055495;28;20032;-79
2022/09/23 01:07:32;;;;;;;17.25;7.97;;;16.00;77.00;;;;;;5055299;28;20044;-79
2022/09/23 01:09:59;;;;;;;14.13;7.65;;;16.10;77.10;;;;;;5055005;28;20029;-79
2022/09/23 01:12:58;;;;;;;11.95;7.85;;;16.00;77.10;;;;;;5055318;28;20037;-79
2022/09/23 01:15:35;;;;;;;11.63;7.60;;;16.00;77.10;;;;;;5055516;28;20025;-79
2022/09/23 01:18:30;;;;;;;12.15;7.47;;;15.90;77.20;;;;;;5054965;28;20094;-79
2022/09/23 01:21:41;;;;;;;15.85;7.60;;;16.00;77.30;;;;;;5055229;28;20483;-79
2022/09/23 01:24:44;;;;;;;14.20;7.38;;;15.90;77.30;;;;;;5054873;28;20029;-79
2022/09/23 01:27:19;;;;;;;15.10;8.20;;;15.90;77.40;;;;;;5055144;28;20064;-79
2022/09/23 01:30:18;;;;;;;12.63;6.75;;;15.90;77.50;;;;;;5055186;28;20021;-79
2022/09/23 01:33:07;;;;;;;14.48;7.30;;;15.90;77.60;;;;;;5054437;28;20037;-79
2022/09/23 01:36:07;;;;;;;14.35;7.60;;;15.80;77.60;;;;;;5054178;28;20025;-79
2022/09/23 01:38:57;;;;;;;12.05;8.25;;;15.90;77.70;;;;;;5054663;28;20033;-80
2022/09/23 01:41:25;;;;;;;14.63;7.45;;;15.80;77.80;;;;;;5054727;28;20036;-79
2022/09/23 01:44:03;;;;;;;11.25;7.65;;;15.80;77.80;;;;;;5054745;28;20033;-79
2022/09/23 01:46:36;;;;;;;11.20;7.80;;;15.80;77.90;;;;;;5053720;28;20117;-78
2022/09/23 01:49:10;;;;;;;13.70;7.95;;;15.80;77.90;;;;;;5054885;28;20064;-79
2022/09/23 01:51:38;;;;;;;;;;;15.70;77.90;;;;;;5054524;28;20091;-79
2022/09/23 01:54:17;;;;;;;10.32;7.20;;;15.70;78.10;;;;;;5059290;28;19944;-78
2022/09/23 01:56:51;;;;;;;14.77;8.40;;;15.70;77.90;;;;;;5056222;28;20115;-78
2022/09/23 01:59:30;;;;;;;10.43;7.60;;;15.70;78.00;;;;;;5055167;28;20033;-79
2022/09/23 02:02:04;;;;;;;13.90;7.93;;;15.70;78.00;;;;;;5054757;28;20041;-79
2022/09/23 02:04:44;;;;;;;13.95;7.53;;;15.70;78.10;;;;;;5054995;28;20037;-79
2022/09/23 02:07:34;;;;;;;11.95;8.40;;;15.60;78.00;;;;;;5054120;28;20091;-79
2022/09/23 02:10:10;;;;;;;12.15;7.55;;;15.70;78.10;;;;;;5048266;28;20515;-79
2022/09/23 02:12:39;;;;;;;10.65;8.25;;;15.70;78.20;;;;;;5053916;28;20549;-79
2022/09/23 02:15:19;;;;;;;12.70;7.82;;;15.60;78.10;;;;;;5054294;28;20035;-79
2022/09/23 02:17:53;;;;;;;12.27;6.85;;;15.60;78.20;;;;;;5054966;28;20071;-79
2022/09/23 02:20:21;;;;;;;;;;;15.60;78.20;;;;;;5054522;28;20112;-79
2022/09/23 02:23:07;;;;;;;16.90;7.88;;;15.60;78.40;;;;;;5054274;28;19909;-79
2022/09/23 02:25:51;;;;;;;13.48;7.85;;;15.60;78.20;;;;;;5054573;28;20040;-79
2022/09/23 02:28:27;;;;;;;14.60;8.60;;;15.50;78.30;;;;;;5054076;28;20443;-79
2022/09/23 02:31:04;;;;;;;17.52;7.85;;;15.50;78.40;;;;;;5054539;28;20033;-79
2022/09/23 02:33:37;;;;;;;11.07;7.63;;;15.50;78.50;;;;;;5054035;28;20080;-79
2022/09/23 02:36:13;;;;;;;11.63;7.25;;;15.50;78.50;;;;;;5053953;28;20133;-78
2022/09/23 02:38:51;;;;;;;12.98;6.88;;;15.50;78.50;;;;;;5054565;28;20072;-78
2022/09/23 02:41:31;;;;;;;12.25;8.10;;;15.50;78.50;;;;;;5054004;28;20167;-79
2022/09/23 02:44:11;;;;;;;11.30;7.90;;;15.40;78.50;;;;;;5053787;28;20033;-79
2022/09/23 02:46:37;;;;;;;13.38;7.43;;;15.50;78.50;;;;;;5052829;28;20029;-78
2022/09/23 02:49:17;;;;;;;10.57;7.18;;;15.40;78.50;;;;;;5052993;28;20461;-79
2022/09/23 02:51:44;;;;;;;14.20;7.50;;;15.40;78.40;;;;;;5053498;28;20488;-79
2022/09/23 02:54:13;;;;;;;8.73;7.18;;;15.40;78.50;;;;;;5053674;28;20049;-78
2022/09/23 02:56:39;;;;;;;13.30;7.13;;;15.30;78.60;;;;;;5051806;28;20033;-78
2022/09/23 02:59:07;;;;;;;15.55;6.80;;;15.30;78.50;;;;;;5051171;28;20087;-78
2022/09/23 03:01:53;;;;;;;9.20;6.57;;;15.30;78.50;;;;;;5045968;28;20025;-78
2022/09/23 03:04:37;;;;;;;10.60;6.22;;;15.30;78.50;;;;;;5049037;28;20017;-79
2022/09/23 03:07:20;;;;;;;9.23;7.10;;;15.30;78.50;;;;;;5051129;28;20052;-79
2022/09/23 03:10:09;;;;;;;14.60;7.88;;;15.20;78.30;;;;;;5041993;28;20439;-79
2022/09/23 03:12:34;;;;;;;10.13;7.30;;;15.20;78.30;;;;;;5048456;28;20035;-80
2022/09/23 03:15:28;;;;;;;11.00;7.05;;;15.20;78.30;;;;;;5044324;28;20032;-80
2022/09/23 03:17:54;;;;;;;;;;;15.20;78.50;;;;;;5039519;28;20030;-80
2022/09/23 03:20:29;;;;;;;15.73;6.65;;;15.20;78.60;;;;;;5045248;28;19908;-79
2022/09/23 03:22:59;;;;;;;12.25;7.65;;;15.20;78.50;;;;;;5042606;28;20112;-80
2022/09/23 03:25:30;;;;;;;8.40;6.57;;;15.10;78.50;;;;;;5049045;28;20376;-80
2022/09/23 03:27:59;;;;;;;14.50;7.95;;;15.10;78.70;;;;;;5048642;28;20025;-79
2022/09/23 03:30:28;;;;;;;11.75;6.72;;;15.10;78.60;;;;;;5050378;28;20025;-80
2022/09/23 03:32:54;;;;;;;11.23;6.80;;;15.10;78.80;;;;;;5050391;28;20037;-79
2022/09/23 03:35:24;;;;;;;12.35;7.05;;;15.10;78.70;;;;;;5048405;28;20103;-78
2022/09/23 03:38:06;;;;;;;13.80;6.88;;;15.10;78.70;;;;;;5045051;28;20029;-80
2022/09/23 03:40:42;;;;;;;18.27;7.20;;;15.00;78.60;;;;;;5045604;28;20484;-79
2022/09/23 03:43:12;;;;;;;15.75;7.63;;;15.10;78.70;;;;;;5032897;28;20104;-79
2022/09/23 03:45:38;;;;;;;14.27;7.90;;;15.10;78.80;;;;;;5047393;28;20041;-79
2022/09/23 03:48:06;;;;;;;13.20;7.45;;;15.00;78.80;;;;;;5052664;28;20040;-79
2022/09/23 03:50:31;;;;;;;12.85;7.43;;;15.00;78.80;;;;;;5052745;28;20041;-80
2022/09/23 03:52:58;;;;;;;11.95;7.65;;;15.00;78.90;;;;;;5051727;28;20075;-80
2022/09/23 03:55:23;;;;;;;11.80;7.03;;;15.00;79.00;;;;;;5052551;28;20032;-80
2022/09/23 03:57:49;;;;;;;11.32;7.30;;;15.00;79.10;;;;;;5053745;28;20037;-79
2022/09/23 04:00:15;;;;;;;13.38;7.80;;;15.00;79.20;;;;;;5056325;28;20028;-79
2022/09/23 04:02:40;;;;;;;15.73;8.32;;;14.90;79.20;;;;;;5056659;28;20468;-79
2022/09/23 04:05:08;;;;;;;10.82;7.47;;;14.90;79.20;;;;;;5056030;28;20025;-79
2022/09/23 04:07:33;;;;;;;9.57;7.43;;;14.90;79.20;;;;;;5055998;28;20033;-79
2022/09/23 04:10:01;;;;;;;14.65;7.97;;;14.80;79.20;;;;;;5056615;28;20521;-79
2022/09/23 04:12:27;;;;;;;17.85;8.38;;;14.80;79.20;;;;;;5057124;28;20098;-78
2022/09/23 04:14:53;;;;;;;12.50;7.90;;;14.80;79.20;;;;;;5058822;28;20472;-78
2022/09/23 04:17:18;;;;;;;11.18;7.75;;;14.80;79.20;;;;;;5057892;28;20029;-79
2022/09/23 04:19:44;;;;;;;12.13;7.90;;;14.80;79.40;;;;;;5056605;28;20040;-79
2022/09/23 04:22:10;;;;;;;18.17;8.82;;;14.80;79.50;;;;;;5057532;28;20044;-79
2022/09/23 04:24:36;;;;;;;17.65;7.93;;;14.70;79.40;;;;;;5056656;28;20388;-80
2022/09/23 04:27:02;;;;;;;11.40;7.78;;;14.80;79.40;;;;;;5062070;28;20052;-78
2022/09/23 04:29:30;;;;;;;11.20;7.53;;;14.80;79.50;;;;;;5055702;28;20464;-78
2022/09/23 04:31:56;;;;;;;12.82;8.00;;;14.70;79.40;;;;;;5065469;28;19997;-80
2022/09/23 04:34:22;;;;;;;10.45;7.30;;;14.70;79.40;;;;;;5067956;28;20033;-77
2022/09/23 04:36:48;;;;;;;18.95;7.97;;;14.70;79.40;;;;;;5057643;28;20460;-79
2022/09/23 04:39:15;;;;;;;15.15;7.90;;;14.70;79.30;;;;;;5056386;28;20033;-79
2022/09/23 04:41:42;;;;;;;15.75;7.95;;;14.70;79.40;;;;;;5054971;28;20025;-76
2022/09/23 04:44:07;;;;;;;12.38;7.63;;;14.60;79.40;;;;;;5055046;28;20491;-76
2022/09/23 04:46:33;;;;;;;16.90;8.85;;;14.60;79.50;;;;;;5048821;28;20017;-77
2022/09/23 04:48:59;;;;;;;12.70;6.80;;;14.60;79.60;;;;;;5055405;28;20361;-79
2022/09/23 04:51:26;;;;;;;14.18;8.00;;;14.60;79.70;;;;;;5051960;28;20110;-78
2022/09/23 04:53:53;;;;;;;15.52;7.75;;;14.60;79.80;;;;;;5053281;28;20107;-78
2022/09/23 04:56:25;;;;;;;10.45;7.60;;;14.60;79.80;;;;;;5044774;28;20020;-79
2022/09/23 04:58:51;;;;;;;12.02;8.00;;;14.60;80.00;;;;;;5045515;28;20079;-79
2022/09/23 05:01:18;;;;;;;16.75;7.93;;;14.60;80.10;;;;;;5044929;28;20404;-77
2022/09/23 05:03:45;;;;;;;19.23;7.45;;;14.50;80.10;;;;;;5040718;28;20469;-78
2022/09/23 05:06:15;;;;;;;11.98;7.07;;;14.60;80.30;;;;;;5041511;28;20025;-77
2022/09/23 05:08:46;;;;;;;11.60;7.28;;;14.50;80.40;;;;;;5054472;28;20082;-79
2022/09/23 05:11:11;;;;;;;12.75;7.53;;;14.60;80.60;;;;;;5054765;28;20426;-78
2022/09/23 05:13:37;;;;;;;14.13;8.27;;;14.50;80.50;;;;;;5055235;28;20120;-68
2022/09/23 05:16:06;;;;;;;14.65;8.27;;;14.60;80.70;;;;;;5054844;28;20403;-68
2022/09/23 05:18:33;;;;;;;12.60;7.93;;;14.50;80.70;;;;;;5052743;28;20257;-68
2022/09/23 05:21:00;;;;;;;15.38;8.15;;;14.50;80.80;;;;;;5054244;28;20031;-67
2022/09/23 05:23:26;;;;;;;16.67;8.30;;;14.50;80.90;;;;;;5049644;28;20025;-71
2022/09/23 05:26:00;;;;;;;13.80;7.75;;;14.50;81.00;;;;;;5054584;28;20044;-67
2022/09/23 05:28:31;;;;;;;10.55;7.68;;;14.50;81.00;;;;;;5054367;28;20472;-67
2022/09/23 05:31:15;;;;;;;13.98;8.75;;;14.50;81.40;;;;;;5054105;28;20527;-69
2022/09/23 05:33:46;;;;;;;13.20;7.30;;;14.40;81.00;;;;;;5054979;28;20052;-67
2022/09/23 05:36:12;;;;;;;11.95;7.47;;;14.40;81.10;;;;;;5054852;28;20036;-68
2022/09/23 05:38:41;;;;;;;15.88;7.97;;;14.40;81.30;;;;;;5054062;28;20543;-68
2022/09/23 05:41:10;;;;;;;16.05;8.35;;;14.40;81.40;;;;;;5054807;28;20043;-69
2022/09/23 05:43:36;;;;;;;16.42;7.13;;;14.40;81.30;;;;;;5054014;28;20025;-69
2022/09/23 05:46:10;;;;;;;10.30;6.28;;;14.40;81.90;;;;;;5054340;28;20033;-70
2022/09/23 05:48:40;;;;;;;16.40;7.15;;;14.40;82.70;;;;;;5054733;28;20052;-68
2022/09/23 05:51:11;;;;;;;14.18;6.80;;;14.30;82.70;;;;;;5054005;28;20071;-70
2022/09/23 05:53:38;;;;;;;9.35;6.80;;;14.40;83.00;;;;;;5054246;28;20043;-70
2022/09/23 05:56:04;;;;;;;11.18;8.15;;;14.40;83.10;;;;;;5054366;28;20434;-71
2022/09/23 05:58:30;;;;;;;17.73;7.82;;;14.40;83.00;;;;;;5053644;28;20480;-70
2022/09/23 06:00:56;;;;;;;13.80;7.13;;;14.40;82.90;;;;;;5054297;28;20032;-71
2022/09/23 06:03:22;;;;;;;11.55;7.40;;;14.40;83.10;;;;;;5054493;28;20072;-69
2022/09/23 06:05:52;;;;;;;9.30;6.75;;;14.50;83.10;;;;;;5052529;28;20061;-70
2022/09/23 06:08:21;;;;;;;14.25;7.65;;;14.40;82.70;;;;;;5053717;28;20065;-70
2022/09/23 06:10:47;;;;;;;11.80;7.47;;;14.40;82.60;;;;;;5053874;28;20044;-70
2022/09/23 06:13:14;;;;;;;12.45;7.65;;;14.50;82.40;;;;;;5053294;28;20041;-70
2022/09/23 06:15:42;;;;;;;12.52;7.18;;;14.50;82.40;;;;;;5054149;28;20041;-70
2022/09/23 06:18:08;;;;;;;13.13;7.35;;;14.50;82.30;;;;;;5054153;28;20086;-70
2022/09/23 06:20:34;;;;;;;12.35;6.93;;;14.50;82.30;;;;;;5052975;28;20033;-70
2022/09/23 06:23:18;;;;;;;12.57;7.53;;;14.50;82.10;;;;;;5053907;28;20037;-70
2022/09/23 06:25:43;;;;;;;16.35;7.03;;;14.50;82.10;;;;;;5053302;28;20376;-70
2022/09/23 06:28:11;;;;;;;10.88;7.18;;;14.50;82.00;;;;;;5053814;28;20025;-70
2022/09/23 06:30:38;;;;;;;11.93;7.15;;;14.50;81.80;;;;;;5053904;28;20037;-70
2022/09/23 06:33:04;;;;;;;9.27;6.72;;;14.50;81.80;;;;;;5053205;28;20033;-70
2022/09/23 06:35:32;;;;;;;12.30;7.32;;;14.50;81.80;;;;;;5053534;28;20056;-69
2022/09/23 06:38:00;;;;;;;16.45;7.22;;;14.50;81.60;;;;;;5053843;28;20082;-69
2022/09/23 06:40:26;;;;;;;11.40;7.30;;;14.50;81.50;;;;;;5053176;28;20033;-70
2022/09/23 06:42:59;;;;;;;14.60;7.97;;;14.50;81.30;;;;;;5053549;28;20055;-70
2022/09/23 06:45:26;;;;;;;17.63;7.82;;;14.50;81.50;;;;;;5053520;28;20535;-70
2022/09/23 06:47:56;;;;;;;15.60;7.10;;;14.50;81.50;;;;;;5053219;28;20087;-70
2022/09/23 06:50:26;;;;;;;10.98;6.68;;;14.50;81.50;;;;;;5053494;28;20057;-70
2022/09/23 06:52:55;;;;;;;16.10;7.32;;;14.50;81.40;;;;;;5053133;28;20053;-70
2022/09/23 06:55:26;;;;;;;18.67;7.60;;;14.50;81.60;;;;;;5052988;28;20600;-70
2022/09/23 06:57:52;;;;;;;11.25;7.68;;;14.50;81.70;;;;;;5053915;28;20100;-70
2022/09/23 07:00:18;;;;;;;17.80;8.38;;;14.50;81.80;;;;;;5053211;28;20025;-70
2022/09/23 07:02:44;;;;;;;11.57;6.55;;;14.50;81.90;;;;;;5052789;28;20033;-70
2022/09/23 07:05:10;;;;;;;12.85;6.13;;;14.50;82.20;;;;;;5067575;28;20031;-68
2022/09/23 07:07:36;;;;;;;9.15;7.05;;;14.50;81.80;;;;;;5055404;28;20090;-68
2022/09/23 07:10:06;;;;;;;11.80;7.63;;;14.50;81.70;;;;;;5051656;28;20029;-68
2022/09/23 07:12:32;;;;;;;13.55;7.75;;;14.50;82.00;;;;;;5052226;28;20167;-68
2022/09/23 07:14:58;;;;;;;14.02;8.07;;;14.60;82.30;;;;;;5052342;28;20047;-69
2022/09/23 07:17:24;;;;;;;14.30;7.35;;;14.60;82.30;;;;;;5052641;28;20032;-68
2022/09/23 07:19:50;;;;;;;11.73;7.95;;;14.60;82.50;;;;;;5052945;28;20083;-68
2022/09/23 07:22:17;;;;;;;13.30;7.00;;;14.70;82.50;;;;;;5049444;28;20376;-68
2022/09/23 07:24:45;;;;;;;9.93;6.85;;;14.70;82.20;;;;;;5051296;28;20044;-68
2022/09/23 07:27:15;;;;;;;11.15;7.03;;;14.70;82.00;;;;;;5052154;28;20094;-68
2022/09/23 07:29:42;;;;;;;13.80;8.32;;;14.70;81.80;;;;;;5051422;28;20033;-68
2022/09/23 07:32:08;;;;;;;16.85;7.72;;;14.70;81.80;;;;;;5052218;28;20056;-68
2022/09/23 07:34:34;;;;;;;13.77;7.03;;;14.70;81.90;;;;;;5056430;28;20124;-68
2022/09/23 07:37:00;;;;;;;15.98;8.30;;;14.80;82.10;;;;;;5056020;28;20642;-68
2022/09/23 07:39:25;;;;;;;11.85;7.18;;;14.80;82.40;;;;;;5057167;28;20118;-68
2022/09/23 07:41:51;;;;;;;19.25;8.25;;;14.80;82.50;;;;;;5057081;28;20100;-68
2022/09/23 07:44:18;;;;;;;11.48;7.13;;;14.90;82.80;;;;;;5056258;28;20434;-68
2022/09/23 07:46:43;;;;;;;15.32;8.75;;;14.90;82.70;;;;;;5056768;28;20037;-69
2022/09/23 07:49:09;;;;;;;15.30;8.23;;;14.90;82.90;;;;;;5056853;28;20124;-68
2022/09/23 07:51:37;;;;;;;13.18;8.88;;;15.00;83.20;;;;;;5055854;28;20049;-68
2022/09/23 07:54:10;;;;;;;19.33;8.23;;;14.90;83.50;;;;;;5056547;28;20073;-68
2022/09/23 07:56:36;;;;;;;14.67;7.73;;;14.90;83.60;;;;;;5056838;28;20025;-68
2022/09/23 07:59:03;;;;;;;10.73;7.25;;;15.00;83.80;;;;;;5055821;28;20029;-68
2022/09/23 08:01:34;;;;;;;13.40;8.02;;;15.00;83.70;;;;;;5056416;28;20025;-68
2022/09/23 08:04:04;;;;;;;18.13;8.07;;;15.00;83.50;;;;;;5056567;28;20501;-68
2022/09/23 08:06:30;;;;;;;13.57;7.75;;;15.00;83.80;;;;;;5056119;28;20021;-68
2022/09/23 08:08:58;;;;;;;19.15;8.20;;;15.00;83.90;;;;;;5056835;28;20040;-68
2022/09/23 08:11:25;;;;;;;13.20;7.88;;;15.00;83.60;;;;;;5054190;28;20021;-68
2022/09/23 08:13:52;;;;;;;15.43;8.45;;;15.10;84.00;;;;;;5054043;28;20033;-68
2022/09/23 08:16:18;;;;;;;12.52;7.30;;;15.10;84.30;;;;;;5054153;28;20387;-69
2022/09/23 08:18:44;;;;;;;17.15;7.75;;;15.10;83.80;;;;;;5053950;28;20090;-69
2022/09/23 08:21:10;;;;;;;12.75;7.55;;;15.10;83.60;;;;;;5056359;28;20033;-69
2022/09/23 08:23:36;;;;;;;12.27;7.80;;;15.10;83.40;;;;;;5056084;28;20431;-69
2022/09/23 08:26:04;;;;;;;12.32;7.72;;;15.10;83.60;;;;;;5056066;28;20033;-69
2022/09/23 08:28:32;;;;;;;14.13;8.18;;;15.20;84.00;;;;;;5056059;28;20446;-68
2022/09/23 08:30:58;;;;;;;10.52;6.95;;;15.20;84.00;;;;;;5056163;28;20384;-70
2022/09/23 08:33:24;;;;;;;14.38;7.95;;;15.30;84.70;;;;;;5055393;28;20043;-70
2022/09/23 08:35:51;;;;;;;13.15;7.10;;;15.30;84.70;;;;;;5055791;28;20028;-73
2022/09/23 08:38:17;;;;;;;12.90;7.38;;;15.30;84.70;;;;;;5056075;28;20036;-70
2022/09/23 08:40:46;;;;;;;10.80;6.95;;;15.30;84.70;;;;;;5055199;28;20039;-70
2022/09/23 08:43:33;;;;;;;10.70;6.45;;;15.40;84.70;;;;;;5055704;28;20060;-70
2022/09/23 08:46:07;;;;;;;12.30;7.63;;;15.40;84.70;;;;;;5054509;28;20036;-68
2022/09/23 08:48:41;;;;;;;16.90;9.35;;;15.50;84.20;;;;;;5054640;28;20033;-68
2022/09/23 08:51:16;;;;;;;15.05;8.45;;;15.50;84.10;;;;;;5054586;28;20064;-69
2022/09/23 08:53:44;;;;;;;14.07;7.70;;;15.50;84.30;;;;;;5054654;28;20461;-69
2022/09/23 08:56:21;;;;;;;13.27;7.60;;;15.50;84.20;;;;;;5055410;28;20028;-68
2022/09/23 08:59:08;;;;;;;13.25;8.65;;;15.60;84.50;;;;;;5055250;28;20033;-68
2022/09/23 09:02:04;;;;;;;23.13;9.20;;;15.60;84.60;;;;;;5054689;28;20029;-68
2022/09/23 09:04:35;;;;;;;19.58;8.02;;;15.60;85.10;;;;;;5055247;28;20492;-68
2022/09/23 09:07:07;;;;;;;14.32;7.57;;;15.70;85.10;;;;;;5055120;28;20445;-68
2022/09/23 09:09:42;;;;;;;15.98;7.28;;;15.70;85.20;;;;;;5054764;28;20470;-68
2022/09/23 09:12:16;;;;;;;17.40;8.38;;;15.80;85.20;;;;;;5055319;28;20035;-68
2022/09/23 09:14:56;;;;;;;24.73;8.20;;;15.80;86.10;;;;;;5054603;28;20044;-68
2022/09/23 09:17:37;;;;;;;13.52;7.60;;;15.80;85.60;;;;;;5053944;28;20032;-68
2022/09/23 09:20:22;;;;;;;12.35;7.53;;;15.80;85.60;;;;;;5053295;28;20029;-68
2022/09/23 09:23:34;;;;;;;11.45;6.78;;;15.90;85.70;;;;;;5054040;28;20090;-69
2022/09/23 09:26:02;;;;;;;22.52;8.05;;;15.90;85.50;;;;;;5048151;28;20106;-70
2022/09/23 09:28:41;;;;;;;28.13;7.97;;;16.00;85.60;;;;;;5052638;28;20033;-68
2022/09/23 09:31:20;;;;;;;12.50;8.25;;;16.00;85.70;;;;;;5053684;28;20067;-70
2022/09/23 09:33:59;;;;;;;19.88;7.60;;;16.00;85.60;;;;;;5054796;28;20484;-67
2022/09/23 09:36:53;;;;;;;13.27;7.65;;;16.10;85.30;;;;;;5054226;28;20044;-67
2022/09/23 09:39:19;;;;;;;14.68;7.43;;;16.10;85.30;;;;;;5054567;28;20079;-67
2022/09/23 09:41:48;;;;;;;16.00;7.72;;;16.10;85.20;;;;;;5054853;28;20488;-67
2022/09/23 09:44:34;;;;;;;11.75;7.50;;;16.20;85.20;;;;;;5054014;28;20457;-67
2022/09/23 09:47:37;;;;;;;18.83;6.53;;;16.20;85.10;;;;;;5054792;28;20481;-67
2022/09/23 09:50:12;;;;;;;11.57;7.15;;;16.30;85.20;;;;;;5054042;28;20021;-67
2022/09/23 09:52:38;;;;;;;14.35;7.97;;;16.30;85.20;;;;;;5054282;28;20052;-67
2022/09/23 09:55:16;;;;;;;15.13;7.50;;;16.40;85.50;;;;;;5053600;28;20037;-67
2022/09/23 09:57:44;;;;;;;12.75;6.82;;;16.40;85.60;;;;;;5052302;28;20051;-67
2022/09/23 10:00:25;;;;;;;13.43;5.95;;;16.50;84.50;;;;;;5049725;28;20029;-67
2022/09/23 10:02:52;;;;;;;16.80;6.40;;;16.50;83.80;;;;;;5053888;28;20021;-67
2022/09/23 10:05:31;;;;;;;13.90;7.15;;;16.50;83.90;;;;;;5053590;28;20384;-67
2022/09/23 10:08:34;;;;;;;13.50;6.85;;;16.50;84.50;;;;;;5054150;28;20079;-67
2022/09/23 10:11:10;;;;;;;15.98;7.38;;;16.60;84.80;;;;;;5053414;28;20872;-67
2022/09/23 10:13:36;;;;;;;14.60;7.40;;;16.60;84.30;;;;;;5053673;28;20557;-68
2022/09/23 10:16:03;;;;;;;13.75;6.95;;;16.70;84.50;;;;;;5053854;28;20040;-67
2022/09/23 10:18:36;;;;;;;10.90;7.45;;;16.70;84.70;;;;;;5053289;28;20044;-68
2022/09/23 10:21:07;;;;;;;21.43;6.73;;;16.80;84.80;;;;;;5054087;28;20033;-68
2022/09/23 10:23:38;;;;;;;9.77;6.13;;;16.80;84.70;;;;;;5054178;28;20029;-67
2022/09/23 10:26:06;;;;;;;13.77;7.53;;;16.80;84.60;;;;;;5053138;28;20029;-68
2022/09/23 10:28:47;;;;;;;9.25;5.97;;;16.90;84.80;;;;;;5053808;28;20515;-68
2022/09/23 10:31:33;;;;;;;8.68;5.80;;;16.90;84.70;;;;;;5049810;28;20033;-68
2022/09/23 10:34:22;;;;;;;12.35;6.30;;;17.00;83.70;;;;;;5050128;28;20048;-68
2022/09/23 10:37:14;;;;;;;12.23;6.93;;;17.00;84.10;;;;;;5050726;28;20037;-68
2022/09/23 10:48:44;;;;;;;11.27;6.15;;;17.00;82.90;;;;;;5053335;28;20040;-68
2022/09/23 10:51:39;;;;;;;10.05;6.03;;;17.00;83.20;;;;;;5053248;28;20076;-68
2022/09/23 10:54:22;;;;;;;18.60;6.68;;;17.10;83.50;;;;;;5052582;28;20123;-69
2022/09/23 10:56:53;;;;;;;;;;;17.20;83.70;;;;;;5047564;28;20476;-68
2022/09/23 10:59:49;;;;;;;9.93;5.07;;;17.30;83.30;;;;;;5035497;28;20316;-68
2022/09/23 11:02:28;;;;;;;9.98;5.15;;;17.30;82.70;;;;;;5052378;28;20511;-68
2022/09/23 11:05:05;;;;;;;23.92;6.53;;;17.30;82.40;;;;;;5053111;28;20028;-68
2022/09/23 11:08:03;;;;;;;11.35;5.45;;;17.30;83.00;;;;;;5051392;28;20060;-68
2022/09/23 11:10:50;;;;;;;10.57;5.38;;;17.30;82.90;;;;;;5052524;28;20032;-68
2022/09/23 11:13:29;;;;;;;10.07;6.00;;;17.30;82.40;;;;;;5052864;28;20049;-68
2022/09/23 11:16:26;;;;;;;8.57;5.00;;;17.30;82.70;;;;;;5052755;28;20040;-70
2022/09/23 11:19:11;;;;;;;8.45;4.43;;;17.40;83.10;;;;;;5052159;28;20028;-71
2022/09/23 11:22:00;;;;;;;9.38;3.75;;;17.40;82.90;;;;;;5052399;28;20496;-68
2022/09/23 11:24:28;;;;;;;6.78;3.65;;;17.40;82.50;;;;;;5052918;28;20124;-68
2022/09/23 11:27:31;;;;;;;11.18;4.93;;;17.40;82.40;;;;;;5053159;28;20376;-68
2022/09/23 11:30:02;;;;;;;11.32;5.93;;;17.40;82.50;;;;;;5053300;28;20472;-71
2022/09/23 11:32:49;;;;;;;10.98;6.15;;;17.40;82.70;;;;;;5053727;28;20040;-68
2022/09/23 11:35:31;;;;;;;14.15;5.95;;;17.50;82.90;;;;;;5051128;28;20389;-69
2022/09/23 11:38:05;;;;;;;8.55;4.82;;;17.50;82.80;;;;;;5051967;28;20037;-68
2022/09/23 11:40:35;;;;;;;15.05;5.90;;;17.50;82.80;;;;;;5053924;28;20057;-68
2022/09/23 11:43:22;;;;;;;14.10;5.80;;;17.50;82.90;;;;;;5052824;28;20040;-68
2022/09/23 11:46:02;;;;;;;12.63;6.25;;;17.50;83.00;;;;;;5056087;28;20041;-68
2022/09/23 11:49:04;;;;;;;9.40;5.13;;;17.50;82.90;;;;;;5053663;28;20032;-68
2022/09/23 11:51:43;;;;;;;11.75;5.68;;;17.50;83.00;;;;;;5051894;28;20115;-68
2022/09/23 11:54:38;;;;;;;17.63;5.63;;;17.60;83.40;;;;;;5053096;28;20068;-68
2022/09/23 11:57:09;;;;;;;19.77;5.85;;;17.60;83.30;;;;;;5037572;28;20379;-68
2022/09/23 11:59:55;;;;;;;12.00;4.47;;;17.70;83.40;;;;;;5054939;28;20120;-68
2022/09/23 12:02:20;;;;;;;13.02;6.15;;;17.70;83.20;;;;;;5054703;28;20041;-68
2022/09/23 12:05:01;;;;;;;14.13;6.82;;;17.70;83.20;;;;;;5052506;28;20083;-68
2022/09/23 12:07:38;;;;;;;10.73;6.22;;;17.80;83.40;;;;;;5054659;28;20024;-68
2022/09/23 12:10:06;;;;;;;8.00;4.45;;;17.80;83.50;;;;;;5054415;28;20438;-68
2022/09/23 12:12:49;;;;;;;11.60;6.57;;;17.90;83.40;;;;;;5053358;28;20040;-68
2022/09/23 12:15:24;;;;;;;9.48;5.03;;;17.80;83.40;;;;;;5054584;28;20088;-68
2022/09/23 12:17:50;;;;;;;15.10;7.18;;;17.80;83.30;;;;;;5053116;28;20106;-68
2022/09/23 12:20:58;;;;;;;15.48;6.03;;;17.90;83.60;;;;;;5056959;28;20037;-68
2022/09/23 12:23:32;;;;;;;16.20;6.95;;;17.90;83.50;;;;;;5036974;28;20078;-69
2022/09/23 12:26:01;;;;;;;15.48;6.63;;;17.90;83.80;;;;;;5056285;28;20071;-69
2022/09/23 12:28:36;;;;;;;11.63;7.13;;;17.90;83.70;;;;;;5057004;28;20032;-69
2022/09/23 12:31:04;;;;;;;11.23;6.32;;;18.00;83.90;;;;;;5056054;28;20041;-66
2022/09/23 12:33:35;;;;;;;13.13;6.60;;;18.00;83.90;;;;;;5055174;28;20454;-66
2022/09/23 12:36:03;;;;;;;9.25;6.15;;;18.00;83.90;;;;;;5055878;28;20413;-66
2022/09/23 12:38:36;;;;;;;9.18;4.20;;;18.10;83.90;;;;;;5054005;28;20144;-67
2022/09/23 12:41:36;;;;;;;16.52;6.65;;;18.10;83.90;;;;;;5054954;28;20021;-66
2022/09/23 12:44:13;;;;;;;12.10;6.60;;;18.10;83.90;;;;;;5054329;28;20120;-67
2022/09/23 12:46:41;;;;;;;7.38;3.67;;;18.20;84.00;;;;;;5054475;28;20025;-67
2022/09/23 12:49:29;;;;;;;11.90;5.32;;;18.10;84.00;;;;;;5056010;28;20021;-69
2022/09/23 12:52:09;;;;;;;11.00;5.85;;;18.20;84.40;;;;;;5055444;28;20136;-69
2022/09/23 12:54:37;;;;;;;12.25;6.85;;;18.20;84.40;;;;;;5053844;28;20079;-74
2022/09/23 12:57:05;;;;;;;18.83;6.65;;;18.20;84.20;;;;;;5051633;28;20017;-67
2022/09/23 12:59:54;;;;;;;12.30;5.47;;;18.20;84.30;;;;;;5044936;28;20034;-71
2022/09/23 13:02:32;;;;;;;13.23;5.97;;;18.30;84.50;;;;;;5036616;28;20480;-71
2022/09/23 13:07:54;;;;;;;15.07;7.25;;;18.30;84.60;;;;;;5033198;28;20542;-69
2022/09/23 13:10:54;;;;;;;10.18;6.13;;;18.40;84.40;;;;;;5036363;28;20067;-69
2022/09/23 13:13:30;;;;;;;15.68;7.30;;;18.40;84.40;;;;;;5035046;28;20518;-69
2022/09/23 13:16:12;;;;;;;11.27;6.40;;;18.40;84.40;;;;;;5039718;28;20053;-69
2022/09/23 13:18:54;;;;;;;10.40;6.53;;;18.50;84.40;;;;;;5034167;28;20488;-69
2022/09/23 13:21:43;;;;;;;13.95;6.45;;;18.50;84.20;;;;;;5034348;28;20044;-69